Time;durP1;ratioP1;P1;durP2;ratioP2;P2;SDS_P1;SDS_P2;PMS_P1;PMS_P2;Temp;Humidity;BMP_temperature;BMP_pressure;BME280_temperature;BME280_humidity;BME280_pressure;Samples;Min_cycle;Max_cycle;Signal;HPM_P1;HPM_P2
2022/11/17 00:01:44;;;;;;;9.80;6.40;;;;;;;3.20;83.28;99818.09;100464;1291;98698;-58
2022/11/17 00:04:17;;;;;;;7.10;5.70;;;;;;;3.19;83.19;99815.88;100432;1297;96086;-58
2022/11/17 00:06:48;;;;;;;8.30;5.10;;;;;;;3.15;83.08;99818.64;100446;1292;82022;-57
2022/11/17 00:09:20;;;;;;;5.80;4.60;;;;;;;3.14;83.19;99821.23;100448;1289;88980;-57
2022/11/17 00:14:46;;;;;;;8.30;5.10;;;;;;;3.13;83.37;99822.20;100477;1290;99022;-59
2022/11/17 00:17:16;;;;;;;10.30;7.10;;;;;;;3.13;83.43;99820.45;100422;1297;93697;-57
2022/11/17 00:22:38;;;;;;;6.00;4.90;;;;;;;3.13;83.16;99825.73;100445;1284;88789;-61
2022/11/17 00:25:11;;;;;;;5.50;4.50;;;;;;;3.13;83.09;99821.34;100495;1290;80959;-57
2022/11/17 00:27:44;;;;;;;4.50;3.90;;;;;;;3.13;82.63;99824.71;100501;1290;98923;-57
2022/11/17 00:34:03;;;;;;;5.70;4.20;;;;;;;3.10;82.50;99820.19;100457;1296;93097;-58
2022/11/17 00:35:59;;;;;;;5.80;4.70;;;;;;;3.04;82.33;99828.45;100452;1290;87630;-60
2022/11/17 00:38:29;;;;;;;4.80;3.60;;;;;;;3.05;82.41;99828.26;100462;1289;79363;-60
2022/11/17 00:41:03;;;;;;;6.50;4.90;;;;;;;3.04;82.58;99831.20;100440;1289;96848;-60
2022/11/17 00:43:38;;;;;;;6.10;4.90;;;;;;;3.01;82.70;99833.23;100432;1296;93951;-59
2022/11/17 00:46:13;;;;;;;6.00;4.20;;;;;;;3.01;82.82;99832.36;100448;1291;82715;-58
2022/11/17 00:48:42;;;;;;;;;;;;;;;2.99;82.75;99837.35;100424;1297;87659;-59
2022/11/17 00:51:20;;;;;;;4.60;3.80;;;;;;;2.96;82.76;99834.92;100366;1293;81340;-59
2022/11/17 00:53:49;;;;;;;5.60;4.40;;;;;;;2.97;82.46;99837.54;100462;1290;97284;-60
2022/11/17 00:56:25;;;;;;;4.50;3.20;;;;;;;2.99;82.62;99838.73;100475;1290;93453;-59
2022/11/17 00:58:55;;;;;;;4.10;3.30;;;;;;;2.99;82.40;99833.77;100506;1290;82996;-60
2022/11/17 01:01:28;;;;;;;4.30;3.20;;;;;;;2.98;82.09;99833.11;100482;1290;86945;-56
2022/11/17 01:04:02;;;;;;;3.70;3.20;;;;;;;2.97;81.95;99834.14;100473;1297;78538;-56
2022/11/17 01:06:38;;;;;;;5.00;3.50;;;;;;;2.93;81.60;99833.23;100489;1290;97381;-61
2022/11/17 01:09:11;;;;;;;4.80;3.80;;;;;;;2.91;81.73;99837.25;100479;1290;94447;-60
2022/11/17 01:11:42;;;;;;;6.00;3.60;;;;;;;2.84;81.21;99836.16;100462;1297;82119;-61
2022/11/17 01:14:18;;;;;;;4.30;3.30;;;;;;;2.79;81.07;99832.43;100400;1290;88634;-59
2022/11/17 01:16:48;;;;;;;5.50;3.60;;;;;;;2.74;80.71;99835.27;100460;1290;80240;-58
2022/11/17 01:19:21;;;;;;;7.00;3.90;;;;;;;2.68;80.64;99838.48;100450;1290;98948;-58
2022/11/17 01:21:54;;;;;;;4.60;3.10;;;;;;;2.67;80.85;99828.90;100454;1296;94716;-57
2022/11/17 01:24:33;;;;;;;4.50;2.80;;;;;;;2.69;81.11;99829.48;100464;1290;81832;-57
2022/11/17 01:27:02;;;;;;;3.80;2.90;;;;;;;2.71;80.91;99827.04;100418;1291;89643;-57
2022/11/17 01:29:37;;;;;;;4.80;3.40;;;;;;;2.70;80.95;99829.81;100477;1289;80325;-57
2022/11/17 01:32:09;;;;;;;4.20;3.10;;;;;;;2.69;80.94;99827.59;100465;1291;97673;-57
2022/11/17 01:34:38;;;;;;;3.30;2.90;;;;;;;2.66;80.98;99829.29;100536;1290;93752;-56
2022/11/17 01:37:19;;;;;;;4.00;3.10;;;;;;;2.60;80.63;99834.58;100515;1291;83138;-58
2022/11/17 01:39:56;;;;;;;4.00;2.90;;;;;;;2.55;80.30;99831.65;100478;1290;87479;-57
2022/11/17 01:42:28;;;;;;;5.70;3.30;;;;;;;2.55;80.45;99831.45;100456;1291;81564;-58
2022/11/17 01:45:20;;;;;;;3.80;3.00;;;;;;;2.57;80.60;99827.71;100483;1290;99382;-56
2022/11/17 01:47:57;;;;;;;3.20;2.70;;;;;;;2.63;80.86;99826.64;100426;1293;94944;-59
2022/11/17 01:50:39;;;;;;;4.10;2.80;;;;;;;2.63;80.44;99822.27;100507;1291;82503;-59
2022/11/17 01:53:14;;;;;;;3.00;2.50;;;;;;;2.62;80.43;99825.64;100449;1294;88467;-53
2022/11/17 01:55:48;;;;;;;3.70;2.90;;;;;;;2.62;80.24;99822.46;100447;1290;77955;-58
2022/11/17 01:58:25;;;;;;;3.60;2.80;;;;;;;2.58;80.49;99821.80;100462;1290;98450;-62
2022/11/17 02:00:59;;;;;;;3.90;2.80;;;;;;;2.57;80.38;99824.54;100457;1296;94664;-56
2022/11/17 02:03:31;;;;;;;4.20;2.90;;;;;;;2.52;80.11;99827.55;100472;1283;82770;-56
2022/11/17 02:06:07;;;;;;;4.00;2.80;;;;;;;2.46;80.14;99821.95;100443;1290;88054;-56
2022/11/17 02:08:40;;;;;;;3.40;2.50;;;;;;;2.42;80.30;99820.20;100473;1290;81518;-56
2022/11/17 02:11:12;;;;;;;4.10;2.80;;;;;;;2.43;80.40;99819.25;100476;1290;98864;-58
2022/11/17 02:13:42;;;;;;;3.00;2.60;;;;;;;2.44;80.07;99821.95;100470;1290;95401;-58
2022/11/17 02:16:17;;;;;;;3.50;2.70;;;;;;;2.43;79.91;99818.81;100469;1290;82634;-59
2022/11/17 02:18:54;;;;;;;3.80;2.90;;;;;;;2.42;79.64;99822.30;100458;1290;89231;-59
2022/11/17 02:22:04;;;;;;;2.60;2.20;;;;;;;2.41;79.36;99814.26;100470;1290;79781;-59
2022/11/17 02:25:16;;;;;;;3.30;2.60;;;;;;;2.32;79.18;99812.64;100494;1290;99315;-58
2022/11/17 02:28:18;;;;;;;3.50;2.50;;;;;;;2.25;78.24;99822.76;100483;1297;94588;-58
2022/11/17 02:31:08;;;;;;;3.30;2.60;;;;;;;2.18;78.57;99812.78;100501;1291;83479;-58
2022/11/17 02:33:53;;;;;;;5.50;3.10;;;;;;;2.13;78.34;99811.48;100439;1290;88800;-59
2022/11/17 02:36:32;;;;;;;9.90;5.50;;;;;;;2.08;78.47;99810.91;100501;1292;81700;-56
2022/11/17 02:39:17;;;;;;;9.10;5.30;;;;;;;2.07;78.61;99807.14;100439;1296;97899;-57
2022/11/17 02:41:58;;;;;;;10.70;5.30;;;;;;;2.05;78.21;99819.23;100449;1290;94086;-59
2022/11/17 02:44:38;;;;;;;5.80;4.40;;;;;;;2.04;77.90;99814.34;100430;1290;82712;-59
2022/11/17 02:47:15;;;;;;;5.40;3.10;;;;;;;2.06;77.92;99811.82;100479;1290;88354;-57
2022/11/17 02:50:01;;;;;;;4.40;3.70;;;;;;;2.11;78.01;99815.31;100438;1297;79723;-58
2022/11/17 02:52:35;;;;;;;5.10;3.70;;;;;;;2.13;78.04;99817.90;100455;1290;98430;-61
2022/11/17 02:55:10;;;;;;;4.30;3.70;;;;;;;2.09;77.69;99811.02;100414;1290;94920;-59
2022/11/17 02:57:43;;;;;;;3.40;2.90;;;;;;;2.06;77.92;99809.34;100450;1297;81382;-59
2022/11/17 03:00:20;;;;;;;3.20;2.60;;;;;;;1.99;77.83;99817.84;100439;1297;88031;-58
2022/11/17 03:03:08;;;;;;;3.50;2.90;;;;;;;1.93;77.92;99817.74;100489;1292;80321;-58
2022/11/17 03:05:56;;;;;;;3.90;2.90;;;;;;;1.83;77.88;99817.71;100429;1290;99794;-59
2022/11/17 03:08:40;;;;;;;4.10;3.50;;;;;;;1.78;77.89;99814.42;100473;1290;94830;-59
2022/11/17 03:11:14;;;;;;;3.70;2.90;;;;;;;1.79;77.82;99821.36;100495;1290;82757;-58
2022/11/17 03:13:56;;;;;;;5.20;3.40;;;;;;;1.80;78.15;99817.24;100432;1289;89248;-59
2022/11/17 03:16:38;;;;;;;4.50;3.30;;;;;;;1.82;78.21;99820.27;100518;1290;76961;-60
2022/11/17 03:19:18;;;;;;;3.60;3.10;;;;;;;1.84;78.25;99824.11;100515;1290;99380;-59
2022/11/17 03:21:51;;;;;;;4.90;3.10;;;;;;;1.83;78.38;99820.20;100481;1290;95027;-59
2022/11/17 03:24:32;;;;;;;4.90;3.70;;;;;;;1.84;78.54;99819.38;100477;1290;82128;-59
2022/11/17 03:27:08;;;;;;;4.80;3.70;;;;;;;1.82;78.47;99816.56;100495;1290;88039;-56
2022/11/17 03:29:41;;;;;;;6.50;3.90;;;;;;;1.81;78.75;99819.66;100475;1290;78038;-57
2022/11/17 03:32:12;;;;;;;6.80;3.60;;;;;;;1.75;78.75;99819.29;100489;1290;98663;-59
2022/11/17 03:34:46;;;;;;;6.00;3.20;;;;;;;1.72;78.85;99813.27;100458;1290;96490;-60
2022/11/17 03:37:22;;;;;;;5.40;3.60;;;;;;;1.70;79.01;99815.20;100462;1290;83003;-57
2022/11/17 03:39:58;;;;;;;7.00;5.00;;;;;;;1.72;79.11;99817.98;100487;1297;88696;-57
2022/11/17 03:42:34;;;;;;;6.20;4.70;;;;;;;1.75;79.36;99816.32;100475;1291;81323;-57
2022/11/17 03:45:14;;;;;;;4.10;3.10;;;;;;;1.78;79.32;99817.98;100470;1293;99977;-58
2022/11/17 03:47:52;;;;;;;4.70;4.10;;;;;;;1.78;79.45;99822.77;100511;1291;93908;-57
2022/11/17 03:50:35;;;;;;;4.80;4.20;;;;;;;1.82;79.57;99822.10;100539;1290;82183;-57
2022/11/17 03:53:05;;;;;;;6.40;4.30;;;;;;;1.82;79.53;99825.55;100473;1290;86338;-58
2022/11/17 03:55:47;;;;;;;5.40;3.70;;;;;;;1.80;79.20;99826.14;100488;1296;79144;-59
2022/11/17 03:58:24;;;;;;;4.40;3.10;;;;;;;1.72;79.23;99827.04;100506;1290;97170;-59
2022/11/17 04:01:02;;;;;;;4.10;3.20;;;;;;;1.66;79.35;99819.66;100476;1290;94560;-60
2022/11/17 04:03:36;;;;;;;4.60;3.20;;;;;;;1.63;79.35;99816.73;100490;1290;83329;-60
2022/11/17 04:06:08;;;;;;;5.10;3.30;;;;;;;1.58;79.24;99819.03;100449;1292;86843;-58
2022/11/17 04:08:37;;;;;;;5.10;3.40;;;;;;;1.54;79.48;99817.81;100459;1290;81228;-59
2022/11/17 04:16:55;;;;;;;4.40;2.60;;;;;;;1.46;79.60;99824.05;100491;1291;82885;-57
2022/11/17 04:19:27;;;;;;;5.40;2.50;;;;;;;1.47;79.56;99823.46;100478;1290;88616;-58
2022/11/17 04:21:56;;;;;;;4.50;2.80;;;;;;;1.48;79.64;99821.56;100500;1290;79098;-59
2022/11/17 04:24:27;;;;;;;3.40;2.30;;;;;;;1.50;79.52;99825.11;100460;1290;98381;-59
2022/11/17 04:29:46;;;;;;;4.00;2.70;;;;;;;1.45;79.58;99825.58;100491;1290;83098;-56
2022/11/17 04:32:18;;;;;;;5.40;3.40;;;;;;;1.43;79.69;99827.38;100506;1290;87853;-58
2022/11/17 04:34:51;;;;;;;4.70;3.30;;;;;;;1.42;79.70;99830.14;100513;1284;81546;-57
2022/11/17 04:37:23;;;;;;;7.10;3.80;;;;;;;1.40;79.71;99828.73;100501;1297;97588;-59
2022/11/17 04:39:55;;;;;;;5.00;3.60;;;;;;;1.40;79.82;99832.67;100492;1290;94218;-59
2022/11/17 04:42:26;;;;;;;8.30;3.70;;;;;;;1.42;79.90;99828.61;100504;1289;82793;-58
2022/11/17 04:44:58;;;;;;;3.90;2.50;;;;;;;1.41;79.86;99827.60;100502;1291;89197;-58
2022/11/17 04:47:30;;;;;;;5.70;3.10;;;;;;;1.44;79.94;99824.50;100482;1290;80684;-58
2022/11/17 04:50:01;;;;;;;5.00;2.40;;;;;;;1.45;79.96;99827.20;100478;1295;99187;-58
2022/11/17 04:52:33;;;;;;;6.00;2.90;;;;;;;1.46;79.97;99831.52;100482;1291;95832;-57
2022/11/17 04:55:05;;;;;;;5.50;2.80;;;;;;;1.52;80.01;99831.36;100470;1294;81717;-58
2022/11/17 04:57:35;;;;;;;8.90;4.00;;;;;;;1.56;80.03;99834.31;100482;1291;88175;-59
2022/11/17 05:00:07;;;;;;;6.50;3.70;;;;;;;1.54;80.05;99833.59;100511;1293;78070;-58
2022/11/17 05:02:36;;;;;;;6.80;3.50;;;;;;;1.53;80.08;99834.10;100479;1297;97660;-57
2022/11/17 05:05:09;;;;;;;12.20;4.20;;;;;;;1.48;80.01;99827.29;100459;1289;94512;-56
2022/11/17 05:07:39;;;;;;;7.80;4.10;;;;;;;1.46;80.25;99829.08;100483;1289;82510;-58
2022/11/17 05:10:14;;;;;;;8.40;4.70;;;;;;;1.42;80.10;99834.44;100442;1290;89396;-58
2022/11/17 05:18:15;;;;;;;11.60;5.20;;;;;;;1.37;80.15;99832.24;100470;1297;93947;-60
2022/11/17 05:20:49;;;;;;;12.20;6.70;;;;;;;1.42;80.24;99831.58;100477;1297;83323;-56
2022/11/17 05:26:08;;;;;;;12.90;7.40;;;;;;;1.46;80.13;99831.86;100418;1290;81808;-58
2022/11/17 05:28:39;;;;;;;5.30;3.40;;;;;;;1.48;80.13;99832.63;100483;1290;100011;-59
2022/11/17 05:31:08;;;;;;;9.50;5.10;;;;;;;1.53;80.20;99828.04;100481;1293;95523;-58
2022/11/17 05:33:40;;;;;;;12.20;7.40;;;;;;;1.56;80.11;99828.27;100482;1291;82898;-59
2022/11/17 05:36:15;;;;;;;12.90;7.70;;;;;;;1.55;80.01;99826.92;100512;1294;88680;-58
2022/11/17 05:38:50;;;;;;;9.10;4.00;;;;;;;1.55;79.92;99821.94;100453;1297;78949;-58
2022/11/17 05:41:21;;;;;;;11.60;5.90;;;;;;;1.54;79.74;99817.45;100461;1289;98380;-65
2022/11/17 05:43:53;;;;;;;9.70;5.20;;;;;;;1.52;79.58;99826.53;100484;1290;94995;-58
2022/11/17 05:46:28;;;;;;;9.60;5.10;;;;;;;1.47;79.54;99825.80;100503;1291;82298;-58
2022/11/17 05:48:59;;;;;;;8.50;4.30;;;;;;;1.41;79.59;99825.83;100464;1284;88892;-59
2022/11/17 05:51:32;;;;;;;10.70;5.90;;;;;;;1.41;79.69;99823.17;100480;1291;80032;-59
2022/11/17 05:54:05;;;;;;;8.60;4.30;;;;;;;1.42;79.62;99826.80;100451;1291;99340;-60
2022/11/17 05:56:42;;;;;;;11.70;5.50;;;;;;;1.43;79.67;99827.77;100441;1290;94126;-60
2022/11/17 05:59:23;;;;;;;16.20;7.20;;;;;;;1.44;79.69;99826.38;100482;1290;82960;-60
2022/11/17 06:02:03;;;;;;;5.80;3.30;;;;;;;1.46;79.71;99831.70;96093;1290;3012998;-59
2022/11/17 06:04:38;;;;;;;7.60;3.70;;;;;;;1.47;79.72;99831.63;100488;1289;79538;-59
2022/11/17 06:07:09;;;;;;;9.10;4.80;;;;;;;1.50;79.63;99835.54;100516;1290;97793;-58
2022/11/17 06:09:42;;;;;;;10.70;5.10;;;;;;;1.51;79.69;99836.94;100495;1290;94437;-59
2022/11/17 06:12:16;;;;;;;9.80;5.30;;;;;;;1.49;79.67;99837.83;100512;1290;80160;-57
2022/11/17 06:14:47;;;;;;;12.20;5.60;;;;;;;1.43;79.51;99840.48;100508;1290;87821;-58
2022/11/17 06:17:28;;;;;;;7.50;4.10;;;;;;;1.39;79.37;99845.19;100479;1291;78600;-59
2022/11/17 06:20:05;;;;;;;9.20;3.90;;;;;;;1.36;79.26;99847.63;100446;1290;99229;-57
2022/11/17 06:22:35;;;;;;;9.00;4.00;;;;;;;1.33;79.05;99848.98;100035;1290;515230;-57
2022/11/17 06:25:10;;;;;;;4.10;2.40;;;;;;;1.31;78.90;99847.70;100510;1291;82773;-59
2022/11/17 06:27:43;;;;;;;12.40;4.70;;;;;;;1.30;79.08;99843.95;100462;1290;88616;-58
2022/11/17 06:30:20;;;;;;;8.90;4.00;;;;;;;1.32;78.92;99846.93;100494;1290;81361;-59
2022/11/17 06:32:52;;;;;;;7.20;3.70;;;;;;;1.34;78.95;99844.55;100489;1297;98849;-61
2022/11/17 06:35:25;;;;;;;5.90;3.30;;;;;;;1.39;79.04;99843.21;100464;1291;95487;-61
2022/11/17 06:37:58;;;;;;;6.50;3.50;;;;;;;1.40;78.71;99845.59;100460;1290;80015;-61
2022/11/17 06:40:29;;;;;;;7.70;4.20;;;;;;;1.40;78.54;99849.69;100483;1290;89927;-59
2022/11/17 06:43:07;;;;;;;7.40;3.10;;;;;;;1.38;78.67;99848.59;100476;1290;80076;-59
2022/11/17 06:45:43;;;;;;;6.60;3.10;;;;;;;1.38;78.50;99849.14;100483;1290;97464;-59
2022/11/17 06:48:25;;;;;;;7.50;3.70;;;;;;;1.36;78.14;99856.95;100502;1297;93769;-59
2022/11/17 06:50:57;;;;;;;7.60;3.90;;;;;;;1.33;78.39;99851.94;100507;1294;82428;-59
2022/11/17 06:53:27;;;;;;;4.10;3.10;;;;;;;1.33;77.97;99852.14;100375;1293;88221;-59
2022/11/17 06:56:07;;;;;;;7.00;4.50;;;;;;;1.28;77.88;99847.11;100483;1291;81234;-57
2022/11/17 06:58:41;;;;;;;4.90;3.50;;;;;;;1.26;77.70;99849.44;100490;1290;97854;-58
2022/11/17 07:01:17;;;;;;;10.70;5.60;;;;;;;1.27;77.40;99842.63;100461;1289;94234;-59
2022/11/17 07:03:48;;;;;;;5.30;3.20;;;;;;;1.25;77.23;99852.19;100472;1281;81558;-59
2022/11/17 07:06:17;;;;;;;4.20;3.20;;;;;;;1.26;77.12;99849.55;100535;1294;89484;-58
2022/11/17 07:08:50;;;;;;;3.10;2.40;;;;;;;1.26;77.10;99849.55;100498;1290;79246;-60
2022/11/17 07:11:22;;;;;;;5.10;2.90;;;;;;;1.28;76.64;99854.03;100510;1296;99403;-60
2022/11/17 07:13:57;;;;;;;4.30;2.70;;;;;;;1.29;76.55;99853.89;100458;1297;95446;-57
2022/11/17 07:16:31;;;;;;;5.30;3.10;;;;;;;1.27;76.32;99853.03;100509;1283;81288;-58
2022/11/17 07:19:03;;;;;;;5.60;3.70;;;;;;;1.26;76.69;99858.13;100462;1294;88636;-58
2022/11/17 07:21:38;;;;;;;6.10;3.50;;;;;;;1.25;76.74;99854.48;100528;1291;79379;-58
2022/11/17 07:24:12;;;;;;;3.60;2.90;;;;;;;1.25;76.67;99852.55;100468;1297;98861;-59
2022/11/17 07:26:44;;;;;;;3.60;2.60;;;;;;;1.24;76.66;99850.02;100474;1292;94814;-60
2022/11/17 07:29:19;;;;;;;5.10;4.00;;;;;;;1.18;76.84;99854.09;100516;1291;83322;-59
2022/11/17 07:31:54;;;;;;;6.10;3.30;;;;;;;1.17;76.73;99859.46;100499;1297;88701;-55
2022/11/17 07:34:23;;;;;;;3.70;2.60;;;;;;;1.15;76.45;99866.55;100467;1296;80980;-57
2022/11/17 07:36:54;;;;;;;3.30;2.60;;;;;;;1.15;76.58;99866.96;100344;1293;97960;-57
2022/11/17 07:39:25;;;;;;;3.40;2.60;;;;;;;1.18;76.63;99869.48;100349;1298;94492;-56
2022/11/17 07:41:55;;;;;;;3.30;2.40;;;;;;;1.20;76.31;99868.30;100351;1293;82773;-57
2022/11/17 07:44:28;;;;;;;4.20;3.10;;;;;;;1.14;76.19;99868.48;100350;1299;88686;-57
2022/11/17 07:47:03;;;;;;;4.40;2.90;;;;;;;1.15;76.07;99876.11;100356;1298;80091;-58
2022/11/17 07:49:35;;;;;;;3.80;2.60;;;;;;;1.14;76.15;99879.28;100317;1289;98820;-60
2022/11/17 07:52:11;;;;;;;3.60;2.80;;;;;;;1.12;75.92;99873.41;100309;1291;95055;-59
2022/11/17 07:54:44;;;;;;;3.30;2.70;;;;;;;1.08;75.79;99881.05;100320;1292;83168;-59
2022/11/17 07:57:14;;;;;;;4.80;3.20;;;;;;;1.06;76.02;99881.48;100348;1299;87855;-59
2022/11/17 07:59:45;;;;;;;4.10;3.20;;;;;;;1.04;76.04;99874.58;100367;1293;79909;-60
2022/11/17 08:02:15;;;;;;;4.90;3.40;;;;;;;1.03;76.18;99875.73;100350;1299;96587;-57
2022/11/17 08:04:44;;;;;;;4.40;3.40;;;;;;;0.98;76.09;99869.40;100353;1293;95329;-58
2022/11/17 08:07:16;;;;;;;3.90;3.00;;;;;;;0.99;76.23;99865.11;100443;1299;82670;-59
2022/11/17 08:09:48;;;;;;;7.20;3.30;;;;;;;0.97;76.09;99865.75;100428;1298;88082;-59
2022/11/17 08:12:19;;;;;;;5.40;3.60;;;;;;;0.99;76.24;99872.59;100353;1299;80914;-59
2022/11/17 08:14:51;;;;;;;5.20;4.00;;;;;;;1.03;76.20;99871.08;100374;1299;98662;-59
2022/11/17 08:17:21;;;;;;;6.30;4.10;;;;;;;1.09;76.35;99872.45;100341;1293;95043;-60
2022/11/17 08:19:54;;;;;;;5.90;4.20;;;;;;;1.14;76.34;99876.30;100343;1299;80800;-59
2022/11/17 08:22:26;;;;;;;5.00;4.50;;;;;;;1.14;75.86;99876.23;100345;1299;89066;-56
2022/11/17 08:24:57;;;;;;;5.00;4.10;;;;;;;1.11;75.98;99872.66;100350;1293;79335;-58
2022/11/17 08:27:27;;;;;;;5.60;3.90;;;;;;;1.11;76.20;99872.23;100336;1293;99119;-58
2022/11/17 08:29:57;;;;;;;5.00;4.10;;;;;;;1.12;76.17;99870.23;100327;1292;93835;-57
2022/11/17 08:32:26;;;;;;;4.50;3.90;;;;;;;1.09;76.27;99870.30;100348;1293;80929;-57
2022/11/17 08:34:56;;;;;;;5.30;3.90;;;;;;;1.08;76.27;99870.75;100334;1299;87662;-57
2022/11/17 08:37:25;;;;;;;4.70;3.70;;;;;;;1.05;76.04;99875.36;100299;1297;79860;-58
2022/11/17 08:39:55;;;;;;;5.10;4.10;;;;;;;1.00;76.02;99877.01;100344;1292;99181;-58
2022/11/17 08:42:26;;;;;;;5.40;3.90;;;;;;;1.00;76.06;99872.83;100325;1292;94054;-59
2022/11/17 08:44:59;;;;;;;5.00;4.30;;;;;;;1.01;76.05;99875.89;100356;1298;81614;-58
2022/11/17 08:47:30;;;;;;;5.70;4.00;;;;;;;1.03;75.82;99875.73;100355;1299;88117;-58
2022/11/17 08:50:03;;;;;;;6.40;4.00;;;;;;;0.99;75.88;99879.14;100366;1293;80338;-60
2022/11/17 08:52:35;;;;;;;6.70;5.00;;;;;;;0.99;76.01;99875.75;100326;1299;98219;-60
2022/11/17 08:55:06;;;;;;;8.30;5.30;;;;;;;1.01;75.87;99870.55;100363;1293;94808;-60
2022/11/17 08:57:37;;;;;;;8.90;5.50;;;;;;;1.03;75.78;99873.59;100386;1299;82602;-59
2022/11/17 09:00:15;;;;;;;10.00;6.00;;;;;;;1.04;75.97;99867.42;100361;1298;89275;-59
2022/11/17 09:02:44;;;;;;;8.80;5.40;;;;;;;1.09;76.08;99865.22;100344;1293;79676;-59
2022/11/17 09:05:20;;;;;;;7.00;4.70;;;;;;;1.10;75.97;99866.13;100376;1298;97527;-58
2022/11/17 09:07:49;;;;;;;7.00;5.60;;;;;;;1.09;76.15;99868.23;100335;1299;95182;-60
2022/11/17 09:10:20;;;;;;;12.70;7.30;;;;;;;1.13;76.14;99866.90;100337;1293;82924;-58
2022/11/17 09:12:48;;;;;;;9.80;7.20;;;;;;;1.15;76.15;99863.86;100262;1297;87800;-57
2022/11/17 09:15:23;;;;;;;7.90;5.40;;;;;;;1.13;76.32;99864.98;100357;1299;82422;-59
2022/11/17 09:17:56;;;;;;;7.80;4.40;;;;;;;1.11;75.89;99868.94;100338;1299;98462;-59
2022/11/17 09:20:30;;;;;;;6.00;3.90;;;;;;;1.06;75.94;99873.97;100348;1291;95512;-59
2022/11/17 09:23:02;;;;;;;;;;;;;;;1.03;75.82;99871.98;100351;1293;82026;-59
2022/11/17 09:25:36;;;;;;;6.90;5.20;;;;;;;1.01;75.61;99872.55;100361;1293;87310;-57
2022/11/17 09:28:09;;;;;;;5.90;4.10;;;;;;;1.06;75.96;99868.65;100324;1299;77733;-57
2022/11/17 09:30:44;;;;;;;7.20;5.50;;;;;;;1.12;75.95;99864.76;100363;1293;98368;-60
2022/11/17 09:33:19;;;;;;;6.30;5.00;;;;;;;1.15;75.81;99864.27;100339;1292;95878;-59
2022/11/17 09:35:58;;;;;;;6.50;5.00;;;;;;;1.11;75.36;99863.79;100357;1289;82986;-58
2022/11/17 09:38:33;;;;;;;6.70;5.10;;;;;;;1.05;75.49;99860.09;100354;1299;88738;-59
2022/11/17 09:41:21;;;;;;;7.10;5.60;;;;;;;1.06;75.74;99854.30;100355;1293;78312;-60
2022/11/17 09:44:16;;;;;;;6.60;5.20;;;;;;;1.04;75.76;99850.77;100368;1297;100020;-60
2022/11/17 09:47:10;;;;;;;8.10;6.90;;;;;;;1.05;75.70;99848.40;100337;1293;92983;-57
2022/11/17 09:49:56;;;;;;;7.30;6.20;;;;;;;1.02;75.73;99849.52;100335;1277;80595;-57
2022/11/17 09:52:34;;;;;;;9.10;8.00;;;;;;;1.04;75.93;99851.51;100324;1299;88704;-59
2022/11/17 09:55:17;;;;;;;7.90;5.10;;;;;;;1.06;75.89;99851.14;100358;1298;81131;-59
2022/11/17 09:57:58;;;;;;;7.60;5.40;;;;;;;1.08;75.80;99852.53;100323;1297;97380;-59
2022/11/17 10:00:32;;;;;;;7.30;5.60;;;;;;;1.05;75.75;99853.51;100316;1293;95839;-59
2022/11/17 10:03:02;;;;;;;8.40;6.00;;;;;;;1.03;75.32;99854.89;100366;1299;82589;-58
2022/11/17 10:05:35;;;;;;;9.40;6.20;;;;;;;1.03;75.57;99844.86;100378;1296;87835;-60
2022/11/17 10:08:12;;;;;;;6.30;5.00;;;;;;;1.05;75.45;99843.83;100374;1291;79257;-59
2022/11/17 10:10:47;;;;;;;12.40;5.90;;;;;;;1.04;75.61;99843.52;100365;1293;96928;-60
2022/11/17 10:13:27;;;;;;;9.60;6.20;;;;;;;1.01;75.55;99845.23;100337;1293;94471;-60
2022/11/17 10:16:04;;;;;;;8.20;6.10;;;;;;;0.97;75.36;99839.22;100407;1293;81729;-59
2022/11/17 10:18:42;;;;;;;8.60;6.30;;;;;;;1.01;75.62;99832.63;100359;1299;89214;-59
2022/11/17 10:21:12;;;;;;;10.40;6.90;;;;;;;1.03;75.61;99829.23;100376;1297;80115;-60
2022/11/17 10:23:52;;;;;;;8.50;7.30;;;;;;;1.02;75.77;99828.85;100328;1297;99119;-60
2022/11/17 10:26:24;;;;;;;9.30;6.70;;;;;;;1.02;75.75;99830.19;100367;1293;94140;-59
2022/11/17 10:29:08;;;;;;;10.50;6.70;;;;;;;0.96;75.61;99829.26;100366;1298;80665;-59
2022/11/17 10:31:46;;;;;;;8.70;7.40;;;;;;;0.98;75.80;99827.39;100335;1297;88635;-60
2022/11/17 10:34:32;;;;;;;10.70;7.20;;;;;;;1.00;75.79;99822.09;100363;1292;79595;-59
2022/11/17 10:37:23;;;;;;;10.20;6.90;;;;;;;1.05;75.98;99826.25;100404;1296;97568;-60
2022/11/17 10:40:15;;;;;;;7.70;6.30;;;;;;;1.15;76.11;99829.38;100397;1293;94827;-60
2022/11/17 10:42:54;;;;;;;8.30;5.20;;;;;;;1.21;75.97;99830.95;100382;1293;82088;-62
2022/11/17 10:45:25;;;;;;;9.70;6.50;;;;;;;1.21;75.66;99827.92;100389;1299;89431;-60
2022/11/17 10:48:18;;;;;;;9.10;7.00;;;;;;;1.15;75.13;99827.22;100335;1297;80302;-60
2022/11/17 10:50:57;;;;;;;9.20;6.40;;;;;;;1.15;75.20;99827.18;100399;1298;96899;-60
2022/11/17 10:53:43;;;;;;;13.70;8.60;;;;;;;1.08;74.37;99831.61;100323;1290;95163;-61
2022/11/17 10:56:20;;;;;;;8.30;6.40;;;;;;;1.01;74.34;99829.47;100360;1299;82750;-60
2022/11/17 10:59:16;;;;;;;8.30;6.30;;;;;;;0.99;74.40;99826.30;100333;1299;88825;-60
2022/11/17 11:01:46;;;;;;;;;;;;;;;1.00;74.49;99830.73;100353;1291;80176;-62
2022/11/17 11:04:34;;;;;;;12.30;8.90;;;;;;;0.99;73.93;99829.64;100381;1298;97542;-60
2022/11/17 11:07:19;;;;;;;11.60;7.70;;;;;;;0.94;73.70;99823.89;100363;1298;95169;-54
2022/11/17 11:10:06;;;;;;;10.50;7.40;;;;;;;0.90;74.17;99820.17;100338;1298;82035;-59
2022/11/17 11:12:43;;;;;;;9.20;7.70;;;;;;;0.92;74.04;99819.10;100311;1300;87662;-61
2022/11/17 11:15:37;;;;;;;8.60;6.80;;;;;;;0.92;73.98;99812.59;100321;1300;77446;-60
2022/11/17 11:18:13;;;;;;;8.50;6.50;;;;;;;0.96;74.01;99815.91;100317;1298;99604;-60
2022/11/17 11:20:50;;;;;;;8.10;6.90;;;;;;;0.97;73.88;99811.40;100338;1298;94451;-61
2022/11/17 11:23:31;;;;;;;12.40;6.90;;;;;;;1.00;73.80;99815.89;100328;1294;83398;-61
2022/11/17 11:26:17;;;;;;;8.60;6.80;;;;;;;1.03;73.99;99811.34;100297;1297;89458;-61
2022/11/17 11:29:04;;;;;;;9.30;7.20;;;;;;;1.12;73.76;99807.80;100360;1294;81912;-60
2022/11/17 11:31:53;;;;;;;8.40;6.40;;;;;;;1.21;73.93;99808.17;100321;1298;99250;-57
2022/11/17 11:34:55;;;;;;;8.70;6.60;;;;;;;1.30;73.89;99807.36;100319;1293;94903;-58
2022/11/17 11:37:36;;;;;;;10.30;7.70;;;;;;;1.32;73.87;99805.07;100363;1297;82864;-60
2022/11/17 11:40:20;;;;;;;11.20;6.30;;;;;;;1.39;73.91;99803.83;100331;1298;86036;-60
2022/11/17 11:43:11;;;;;;;10.30;6.90;;;;;;;1.39;73.66;99806.33;100368;1294;80187;-60
2022/11/17 11:45:57;;;;;;;10.40;7.50;;;;;;;1.38;73.51;99803.79;100354;1299;98725;-60
2022/11/17 11:48:34;;;;;;;12.90;8.50;;;;;;;1.40;73.41;99798.93;100343;1300;95512;-60
2022/11/17 11:51:05;;;;;;;11.90;8.50;;;;;;;1.42;73.32;99798.89;100359;1300;81744;-60
2022/11/17 11:53:48;;;;;;;12.90;8.10;;;;;;;1.47;72.98;99793.98;100258;1300;89227;-59
2022/11/17 11:56:28;;;;;;;7.60;6.70;;;;;;;1.50;72.86;99798.70;100376;1300;78992;-59
2022/11/17 11:59:05;;;;;;;10.70;7.00;;;;;;;1.46;72.51;99792.52;100332;1298;96641;-60
2022/11/17 12:01:50;;;;;;;8.70;6.80;;;;;;;1.46;72.39;99799.80;100339;1302;93985;-60
2022/11/17 12:04:35;;;;;;;11.20;8.30;;;;;;;1.45;71.84;99797.91;100369;1292;83643;-60
2022/11/17 12:07:18;;;;;;;10.30;8.00;;;;;;;1.42;71.71;99793.66;100370;1301;88987;-59
2022/11/17 12:10:05;;;;;;;11.30;8.30;;;;;;;1.39;71.65;99795.35;100354;1293;79967;-59
2022/11/17 12:12:40;;;;;;;7.10;5.40;;;;;;;1.30;71.87;99794.39;100355;1293;98822;-59
2022/11/17 12:15:35;;;;;;;6.60;5.30;;;;;;;1.16;71.39;99790.27;100383;1297;94073;-60
2022/11/17 12:18:11;;;;;;;6.80;4.70;;;;;;;1.04;71.19;99794.79;100340;1297;81651;-59
2022/11/17 12:21:06;;;;;;;8.50;6.20;;;;;;;0.93;71.34;99794.00;100359;1293;89151;-59
2022/11/17 12:24:07;;;;;;;7.70;5.90;;;;;;;0.84;71.14;99794.73;100344;1299;80617;-60
2022/11/17 12:26:37;;;;;;;8.00;5.60;;;;;;;0.71;71.29;99793.33;100368;1299;98250;-62
2022/11/17 12:29:45;;;;;;;7.90;6.30;;;;;;;0.65;71.52;99795.50;100368;1291;95096;-61
2022/11/17 12:32:53;;;;;;;8.30;5.90;;;;;;;0.55;71.55;99787.80;100375;1291;82619;-59
2022/11/17 12:35:33;;;;;;;20.10;10.60;;;;;;;0.47;71.41;99785.34;100366;1298;89226;-59
2022/11/17 12:38:43;;;;;;;14.80;8.70;;;;;;;0.44;71.76;99781.41;100384;1296;80520;-59
2022/11/17 12:41:15;;;;;;;13.60;7.60;;;;;;;0.43;71.59;99782.78;100362;1299;99067;-60